AU-0114 weather

Public forecast

Using degrees Celsius for public forecast. Weather courtesy of forecast.io.

Closest aviation weather report (METAR) to Denman Farm Strip

Closest report is Mudgee Airport, 56.0 nm (103.7 km) WSW. Retrieved 2020/08/10 08:00 UTC (15 minutes ago):

YMDG 100800Z AUTO 08005KT 9999 // SCT052 11/05 Q1018

Closest aviation forecast (TAF) to Denman Farm Strip

Closest forecast is Newcastle Airport, 62.8 nm (116.3 km) ESE. Retrieved 2020/08/10 06:48 UTC (1 hour ago):

TAF TAF YWLM 100541Z 1006/1106 18023G35KT 9999 -SHRA FEW010 BKN020 FM100800 18015G26KT 9999 -SHRA FEW010 BKN020 FM101200 21010KT 9999 -SHRA FEW010 BKN020 FM101800 27008KT 9999 -SHRA SCT010 BKN020 FM110300 16010KT 9999 NSW SCT030 INTER 1006/1100 4000 SHRA BKN010